Terminal Aerodrome Forecast
Issued by NWS

Home | Current Version | Previous Version | Text Only | Print | Product List | Glossary On
Versions: 1 2 3 4 5 6 7 8 9 10 11 12 13 14 15 16 17 18 19 20 21 22 23 24 25 26 27 28 29 30 31 32 33 34 35 36 37 38 39 40 41 42 43 44 45 46 47 48
435
FTUS43 KLOT 161120
TAFGYY
TAF
KGYY 161120Z 1612/1712 36005KT 5SM BR BKN015 OVC035
     FM161500 02006KT P6SM BKN020
     FM162100 02008KT P6SM SCT025 OVC120
     FM170300 34008KT P6SM FEW050 BKN150=

USA.gov is the U.S. government's official web portal to all federal, state and local government web resources and services.